Date,TemperatureHighF,TemperatureAvgF,TemperatureLowF,DewpointHighF,DewpointAvgF,DewpointLowF,HumidityHigh,HumidityAvg,HumidityLow,PressureMaxIn,PressureMinIn,WindSpeedMaxMPH,WindSpeedAvgMPH,GustSpeedMaxMPH,PrecipitationSumIn
2013-1-1,40.0,38.6,37.0,-99.9,-99.9,-99.9,0,0,100,30.52,30.39,13,4,16,0.00
2013-1-2,43.0,40.2,38.0,-99.9,-99.9,-99.9,0,0,100,30.38,30.23,9,4,11,0.00
2013-1-3,42.0,39.5,37.0,-99.9,-99.9,-99.9,0,0,100,30.23,30.09,18,9,22,0.00
2013-1-4,44.0,41.8,40.0,-99.9,-99.9,-99.9,0,0,100,30.30,30.15,13,10,16,0.00
2013-1-5,46.0,44.0,43.0,-99.9,-99.9,-99.9,0,0,100,30.19,30.05,22,14,27,0.00
2013-1-6,44.0,43.3,41.0,-99.9,-99.9,-99.9,0,0,100,30.09,29.94,27,16,31,0.00
2013-1-7,44.0,42.1,39.0,-99.9,-99.9,-99.9,0,0,100,30.10,29.76,25,18,31,0.00
2013-1-8,45.0,41.6,38.0,-99.9,-99.9,-99.9,0,0,100,30.13,29.58,27,17,31,0.00
2013-1-9,46.0,44.3,41.0,-99.9,-99.9,-99.9,0,0,100,29.90,29.60,18,8,22,0.00
2013-1-10,41.0,39.4,36.0,-99.9,-99.9,-99.9,0,0,100,30.17,29.92,16,11,18,0.00
2013-1-11,39.0,36.2,35.0,-99.9,-99.9,-99.9,0,0,100,30.34,30.18,16,5,18,0.00
2013-1-12,37.0,35.3,34.0,-99.9,-99.9,-99.9,0,0,100,30.46,30.35,11,5,13,0.00
2013-1-13,36.0,34.7,33.0,-99.9,-99.9,-99.9,0,0,100,30.49,30.45,11,8,16,0.00
2013-1-14,38.0,35.4,34.0,-99.9,-99.9,-99.9,0,0,100,30.60,30.47,9,8,11,0.00
2013-1-15,40.0,38.6,38.0,-99.9,-99.9,-99.9,0,0,100,30.72,30.61,7,3,9,0.00
2013-1-16,40.0,38.3,38.0,-99.9,-99.9,-99.9,0,0,100,30.71,30.56,9,4,11,0.00
2013-1-17,40.0,38.5,36.0,-99.9,-99.9,-99.9,0,0,100,30.55,30.30,7,3,9,0.00
2013-1-18,41.0,39.0,38.0,-99.9,-99.9,-99.9,0,0,100,30.35,30.28,11,8,13,0.00
2013-1-19,40.0,38.8,38.0,-99.9,-99.9,-99.9,0,0,100,30.40,30.36,13,10,16,0.00
2013-1-20,39.0,37.5,36.0,-99.9,-99.9,-99.9,0,0,100,30.42,30.30,16,11,18,0.00
2013-1-21,37.0,35.7,35.0,-99.9,-99.9,-99.9,0,0,100,30.29,30.16,11,4,13,0.00
2013-1-22,41.0,37.7,35.0,-99.9,-99.9,-99.9,0,0,100,30.15,29.94,9,5,13,0.00
2013-1-23,43.0,41.8,41.0,-99.9,-99.9,-99.9,0,0,100,30.07,29.81,11,6,13,0.00
2013-1-24,44.0,42.3,40.0,-99.9,-99.9,-99.9,0,0,100,30.17,29.99,25,15,29,0.00
2013-1-25,46.0,44.2,43.0,-99.9,-99.9,-99.9,0,0,100,30.04,29.89,22,15,27,0.00
2013-1-26,44.0,42.5,41.0,-99.9,-99.9,-99.9,0,0,100,30.01,29.84,20,12,25,0.00
2013-1-27,42.0,41.5,41.0,-99.9,-99.9,-99.9,0,0,100,30.01,29.93,13,7,16,0.00
2013-1-28,43.0,41.5,40.0,-99.9,-99.9,-99.9,0,0,100,30.03,29.97,20,11,22,0.00
2013-1-29,44.0,42.4,41.0,-99.9,-99.9,-99.9,0,0,100,30.30,30.05,16,10,20,0.00
2013-1-30,43.0,42.4,42.0,-99.9,-99.9,-99.9,0,0,100,30.37,30.31,9,3,9,0.00
2013-1-31,46.0,44.5,43.0,-99.9,-99.9,-99.9,0,0,100,30.33,30.26,18,10,20,0.00